Time;durP1;ratioP1;P1;durP2;ratioP2;P2;SDS_P1;SDS_P2;PMS_P1;PMS_P2;Temp;Humidity;BMP_temperature;BMP_pressure;BME280_temperature;BME280_humidity;BME280_pressure;Samples;Min_cycle;Max_cycle;Signal;HPM_P1;HPM_P2
2021/08/10 04:58:45;;;;;;;;;;;;;;;25.69;64.59;100234.06;1857067;77;20146;-69
2021/08/10 05:01:13;;;;;;;;;;;;;;;25.69;64.52;100242.56;1826423;78;20081;-69
2021/08/10 05:03:42;;;;;;;;;;;;;;;25.83;63.82;100235.12;1814874;78;22032;-71
2021/08/10 05:06:09;;;;;;;;;;;;;;;25.89;63.55;100241.91;1761405;81;20165;-70
2021/08/10 05:08:36;;;;;;;;;;;;;;;25.97;63.31;100242.86;1751967;81;20094;-73
2021/08/10 05:11:09;;;;;;;;;;;;;;;26.00;63.12;100242.47;1749656;81;20133;-73
2021/08/10 05:13:36;;;;;;;;;;;;;;;26.03;63.23;100231.43;1751715;80;20109;-69
2021/08/10 05:16:04;;;;;;;;;;;;;;;26.04;62.81;100231.25;1749109;81;21520;-70
2021/08/10 05:18:31;;;;;;;;;;;;;;;26.09;62.60;100237.37;1758408;81;20153;-73
2021/08/10 05:20:58;;;;;;;;;;;;;;;26.11;62.36;100244.20;1762777;81;20188;-69
2021/08/10 05:23:26;;;;;;;;;;;;;;;26.07;62.36;100248.23;1763426;81;20244;-72
2021/08/10 05:25:55;;;;;;;;;;;;;;;26.08;62.72;100251.23;1762871;81;20129;-72
2021/08/10 05:28:22;;;;;;;;;;;;;;;26.16;62.30;100242.33;1765223;81;21121;-76
2021/08/10 05:30:49;;;;;;;;;;;;;;;26.22;62.18;100241.59;1766273;81;20332;-85
2021/08/10 05:33:20;;;;;;;;;;;;;;;26.26;61.87;100233.55;1761636;81;20391;-74
2021/08/10 05:35:59;;;;;;;;;;;;;;;26.32;61.42;100233.36;1755969;81;20087;-83
2021/08/10 05:38:27;;;;;;;;;;;;;;;26.32;61.37;100238.70;1757092;81;20460;-77
2021/08/10 05:40:55;;;;;;;;;;;;;;;26.28;61.53;100228.86;1762767;81;20501;-79
2021/08/10 05:43:25;;;;;;;;;;;;;;;26.31;62.02;100224.52;1768230;81;20120;-67
2021/08/10 05:45:52;;;;;;;;;;;;;;;26.55;61.83;100220.23;1768329;81;20148;-75
2021/08/10 05:48:23;;;;;;;;;;;;;;;26.81;61.15;100224.25;1727816;82;20095;-72
2021/08/10 05:50:56;;;;;;;;;;;;;;;27.07;60.14;100223.78;1759727;81;20148;-74
2021/08/10 05:53:26;;;;;;;;;;;;;;;27.16;59.57;100222.16;1762480;81;20100;-72
2021/08/10 05:55:53;;;;;;;;;;;;;;;27.27;59.77;100222.66;1767528;81;20095;-69
2021/08/10 05:58:21;;;;;;;;;;;;;;;27.64;59.00;100227.78;1760236;81;20395;-76
2021/08/10 06:00:51;;;;;;;;;;;;;;;28.02;57.85;100219.45;1743065;81;20098;-74
2021/08/10 06:03:19;;;;;;;;;;;;;;;28.26;57.00;100217.70;1744810;81;20501;-72
2021/08/10 06:05:48;;;;;;;;;;;;;;;28.46;56.27;100214.61;1736648;81;21974;-74
2021/08/10 06:08:17;;;;;;;;;;;;;;;28.67;55.49;100215.56;1739273;82;20217;-73
2021/08/10 06:10:47;;;;;;;;;;;;;;;28.83;55.24;100212.03;1752226;81;20117;-73
2021/08/10 06:13:14;;;;;;;;;;;;;;;29.04;54.75;100211.09;1745518;81;20136;-71
2021/08/10 06:15:42;;;;;;;;;;;;;;;29.33;53.61;100220.64;1753796;81;20137;-73
2021/08/10 06:18:09;;;;;;;;;;;;;;;29.41;52.77;100211.61;1768026;80;21104;-70
2021/08/10 06:20:36;;;;;;;;;;;;;;;29.34;53.30;100213.42;1755261;80;20392;-72
2021/08/10 06:23:23;;;;;;;;;;;;;;;29.39;53.34;100214.47;1772628;80;20096;-75
2021/08/10 06:26:05;;;;;;;;;;;;;;;29.58;52.81;100216.09;1753887;80;20174;-75
2021/08/10 06:28:51;;;;;;;;;;;;;;;29.77;52.25;100217.42;1747263;80;20183;-70
2021/08/10 06:31:29;;;;;;;;;;;;;;;29.94;51.71;100215.67;1774639;80;20112;-71
2021/08/10 06:33:58;;;;;;;;;;;;;;;30.00;50.91;100210.81;1741991;80;20571;-77
2021/08/10 06:36:26;;;;;;;;;;;;;;;29.96;51.14;100208.23;1769244;80;20483;-70
2021/08/10 06:38:53;;;;;;;;;;;;;;;29.93;51.13;100209.99;1778538;80;20498;-69
2021/08/10 06:41:21;;;;;;;;;;;;;;;29.78;51.46;100206.99;1773731;80;20124;-80
2021/08/10 06:44:00;;;;;;;;;;;;;;;29.67;51.93;100209.45;1762602;80;21167;-69
2021/08/10 06:46:30;;;;;;;;;;;;;;;29.67;51.63;100212.97;1777551;80;20140;-71
2021/08/10 06:49:02;;;;;;;;;;;;;;;29.58;51.66;100218.77;1766692;80;20121;-68
2021/08/10 06:51:31;;;;;;;;;;;;;;;29.62;51.77;100213.27;1769322;80;20211;-67
2021/08/10 06:53:58;;;;;;;;;;;;;;;29.70;51.60;100209.87;1772840;80;20108;-66
2021/08/10 06:56:25;;;;;;;;;;;;;;;29.71;51.55;100204.81;1773420;80;21096;-66
2021/08/10 06:58:55;;;;;;;;;;;;;;;29.76;51.49;100205.55;1772217;80;20157;-66
2021/08/10 07:01:25;;;;;;;;;;;;;;;30.01;50.96;100207.10;1763553;80;20553;-66
2021/08/10 07:03:53;;;;;;;;;;;;;;;30.29;50.27;100192.92;1762603;80;20081;-68
2021/08/10 07:06:21;;;;;;;;;;;;;;;30.54;49.82;100194.38;1769720;80;20442;-68
2021/08/10 07:08:53;;;;;;;;;;;;;;;30.89;49.11;100194.05;1767111;80;21077;-69
2021/08/10 07:11:18;;;;;;;;;;;;;;;31.09;48.05;100196.13;1771732;80;20129;-66
2021/08/10 07:13:46;;;;;;;;;;;;;;;30.96;48.12;100191.64;1771468;80;20186;-69
2021/08/10 07:16:14;;;;;;;;;;;;;;;30.92;48.43;100189.07;1770996;80;20116;-68
2021/08/10 07:18:47;;;;;;;;;;;;;;;31.00;47.90;100201.45;1731849;81;20155;-70
2021/08/10 07:21:15;;;;;;;;;;;;;;;30.83;47.56;100195.21;1778254;80;21105;-67
2021/08/10 07:23:59;;;;;;;;;;;;;;;30.73;48.23;100196.21;1776208;80;20147;-68
2021/08/10 07:26:32;;;;;;;;;;;;;;;30.82;48.23;100190.05;1774590;80;20439;-68
2021/08/10 07:29:16;;;;;;;;;;;;;;;30.77;47.90;100194.75;1781833;80;20130;-68
2021/08/10 07:32:02;;;;;;;;;;;;;;;30.67;48.18;100196.23;1746242;80;20665;-79
2021/08/10 07:34:52;;;;;;;;;;;;;;;30.61;48.87;100188.50;1774024;80;20122;-75
2021/08/10 07:37:27;;;;;;;;;;;;;;;30.66;48.57;100190.55;1678817;84;20486;-73
2021/08/10 07:39:54;;;;;;;;;;;;;;;30.66;48.23;100183.31;1700690;83;20125;-67
2021/08/10 07:42:24;;;;;;;;;;;;;;;30.64;48.41;100184.05;1713473;83;20461;-71
2021/08/10 07:44:52;;;;;;;;;;;;;;;30.63;48.27;100184.25;1715451;83;20437;-67
2021/08/10 07:47:36;;;;;;;;;;;;;;;30.55;48.50;100181.25;1714874;83;21151;-74
2021/08/10 07:49:58;;;;;;;;;;;;;;;30.50;48.37;100183.75;1706487;83;20106;-76
2021/08/10 07:52:27;;;;;;;;;;;;;;;30.44;48.49;100177.35;1716695;83;20149;-76
2021/08/10 07:54:54;;;;;;;;;;;;;;;30.61;48.81;100180.44;1662108;85;20999;-71
2021/08/10 07:57:26;;;;;;;;;;;;;;;30.87;48.85;100178.65;1694358;83;20452;-75
2021/08/10 07:59:59;;;;;;;;;;;;;;;31.10;47.65;100174.39;1696689;84;20462;-77
2021/08/10 08:02:30;;;;;;;;;;;;;;;31.16;48.15;100171.39;1671658;84;20122;-73
2021/08/10 08:04:59;;;;;;;;;;;;;;;31.34;47.68;100176.02;1679592;84;20146;-80
2021/08/10 08:07:31;;;;;;;;;;;;;;;31.43;47.47;100175.54;1689475;84;20923;-78
2021/08/10 08:10:02;;;;;;;;;;;;;;;31.58;47.33;100167.16;1682866;85;20157;-78
2021/08/10 08:12:37;;;;;;;;;;;;;;;31.83;46.27;100172.02;1692619;84;20226;-70
2021/08/10 08:15:08;;;;;;;;;;;;;;;32.07;45.86;100173.55;1714629;81;20134;-79
2021/08/10 08:17:49;;;;;;;;;;;;;;;32.24;45.35;100166.56;1737439;82;20127;-78
2021/08/10 08:20:18;;;;;;;;;;;;;;;32.38;44.64;100169.94;1744546;81;20105;-77
2021/08/10 08:22:45;;;;;;;;;;;;;;;32.27;45.01;100171.50;1759976;80;21309;-72
2021/08/10 08:25:13;;;;;;;;;;;;;;;32.16;45.13;100168.98;1753547;81;21496;-69
2021/08/10 08:27:45;;;;;;;;;;;;;;;32.11;45.31;100170.70;1730372;80;20924;-73
2021/08/10 08:30:14;;;;;;;;;;;;;;;32.12;45.12;100175.87;1722869;82;20094;-69
2021/08/10 08:32:44;;;;;;;;;;;;;;;32.14;45.00;100169.73;1752321;82;20129;-77
2021/08/10 08:35:12;;;;;;;;;;;;;;;32.20;44.86;100173.41;1768503;80;20098;-73
2021/08/10 08:37:40;;;;;;;;;;;;;;;32.18;44.80;100165.25;1772873;80;20112;-73
2021/08/10 08:40:09;;;;;;;;;;;;;;;32.16;45.20;100159.56;1771084;80;20097;-71
2021/08/10 08:42:41;;;;;;;;;;;;;;;32.25;44.86;100158.78;1772862;80;20080;-71
2021/08/10 08:45:19;;;;;;;;;;;;;;;32.35;44.79;100157.73;1755401;80;20407;-78
2021/08/10 08:47:55;;;;;;;;;;;;;;;32.45;44.67;100160.70;1768593;80;20342;-72
2021/08/10 08:50:25;;;;;;;;;;;;;;;32.53;44.49;100166.31;1783192;80;20147;-71
2021/08/10 08:52:53;;;;;;;;;;;;;;;32.61;44.26;100169.23;1775891;80;20179;-71
2021/08/10 08:55:20;;;;;;;;;;;;;;;32.53;44.38;100162.80;1769769;80;20136;-70
2021/08/10 08:57:49;;;;;;;;;;;;;;;32.38;44.67;100158.64;1764030;80;20116;-72
2021/08/10 09:00:19;;;;;;;;;;;;;;;32.22;44.74;100170.53;1751793;80;20455;-74
2021/08/10 09:02:52;;;;;;;;;;;;;;;32.05;44.44;100170.24;1752396;80;21211;-75
2021/08/10 09:05:22;;;;;;;;;;;;;;;31.91;44.96;100169.58;1761209;80;20363;-71
2021/08/10 09:08:08;;;;;;;;;;;;;;;31.72;45.16;100163.83;1759698;80;20220;-73
2021/08/10 09:10:38;;;;;;;;;;;;;;;31.47;46.33;100163.81;1767980;80;20084;-70
2021/08/10 09:13:10;;;;;;;;;;;;;;;31.38;46.53;100166.47;1745958;80;20131;-72
2021/08/10 09:15:44;;;;;;;;;;;;;;;31.32;46.67;100160.61;1784233;80;21102;-72
2021/08/10 09:18:14;;;;;;;;;;;;;;;31.30;46.91;100155.45;1777677;80;20164;-71
2021/08/10 09:21:13;;;;;;;;;;;;;;;31.32;46.94;100162.78;1748879;80;20203;-69
2021/08/10 09:23:56;;;;;;;;;;;;;;;31.29;46.64;100148.94;1761349;80;20392;-74
2021/08/10 09:26:38;;;;;;;;;;;;;;;31.20;45.67;100154.27;1736603;81;20410;-72
2021/08/10 09:29:10;;;;;;;;;;;;;;;30.88;46.31;100152.06;1764548;80;21256;-70
2021/08/10 09:31:42;;;;;;;;;;;;;;;30.61;47.23;100149.52;1737704;81;20095;-72
2021/08/10 09:34:22;;;;;;;;;;;;;;;30.48;47.42;100142.30;1761105;81;20436;-73
2021/08/10 09:36:52;;;;;;;;;;;;;;;30.34;47.62;100141.24;1761277;81;20142;-75
2021/08/10 09:39:31;;;;;;;;;;;;;;;30.15;47.51;100148.31;1759719;81;20142;-71
2021/08/10 09:42:04;;;;;;;;;;;;;;;29.91;48.06;100149.79;1760403;81;20790;-69
2021/08/10 09:44:38;;;;;;;;;;;;;;;29.84;48.77;100143.08;1759496;81;20157;-70
2021/08/10 09:47:06;;;;;;;;;;;;;;;29.82;49.30;100138.95;1761101;81;20285;-70
2021/08/10 09:49:48;;;;;;;;;;;;;;;29.82;48.38;100151.86;1758729;81;20098;-74
2021/08/10 09:52:28;;;;;;;;;;;;;;;29.75;48.66;100140.30;1757377;81;20150;-70
2021/08/10 09:54:59;;;;;;;;;;;;;;;29.70;49.19;100138.75;1755207;81;21009;-73
2021/08/10 09:57:26;;;;;;;;;;;;;;;29.71;48.98;100136.38;1744474;81;20231;-70
2021/08/10 09:59:53;;;;;;;;;;;;;;;29.74;49.39;100131.11;1752013;81;20141;-72
2021/08/10 10:02:22;;;;;;;;;;;;;;;29.78;49.92;100131.83;1759042;81;20189;-72
2021/08/10 10:04:53;;;;;;;;;;;;;;;29.79;50.01;100135.34;1759853;81;20495;-75
2021/08/10 10:07:20;;;;;;;;;;;;;;;29.76;50.41;100129.05;1758322;81;21824;-73
2021/08/10 10:10:03;;;;;;;;;;;;;;;29.75;50.29;100130.08;1759860;81;20308;-76
2021/08/10 10:12:46;;;;;;;;;;;;;;;29.72;48.93;100135.86;1729640;83;20143;-73
2021/08/10 10:15:16;;;;;;;;;;;;;;;29.58;48.86;100144.45;1701699;83;20116;-71
2021/08/10 10:17:47;;;;;;;;;;;;;;;29.39;49.40;100134.50;1731925;83;20163;-72
2021/08/10 10:20:14;;;;;;;;;;;;;;;29.31;50.16;100132.02;1731724;83;21980;-71
2021/08/10 10:22:49;;;;;;;;;;;;;;;29.30;50.52;100129.02;1738896;81;20088;-72
2021/08/10 10:25:19;;;;;;;;;;;;;;;29.31;51.00;100126.65;1730491;81;20439;-73
2021/08/10 10:27:47;;;;;;;;;;;;;;;29.35;51.57;100123.87;1730423;81;20080;-71
2021/08/10 10:30:18;;;;;;;;;;;;;;;29.36;51.26;100129.55;1731355;81;20430;-72
2021/08/10 10:32:44;;;;;;;;;;;;;;;29.39;50.81;100120.58;1762381;81;21023;-72
2021/08/10 10:35:18;;;;;;;;;;;;;;;29.41;49.73;100127.11;1761816;81;20096;-75
2021/08/10 10:37:52;;;;;;;;;;;;;;;29.38;50.17;100120.27;1731742;81;20409;-73
2021/08/10 10:40:26;;;;;;;;;;;;;;;29.36;50.66;100115.62;1761389;81;20084;-71
2021/08/10 10:42:57;;;;;;;;;;;;;;;29.41;50.24;100125.77;1753095;81;20149;-72
2021/08/10 10:45:34;;;;;;;;;;;;;;;29.41;50.35;100115.86;1761365;81;21157;-72
2021/08/10 10:48:28;;;;;;;;;;;;;;;29.40;50.83;100119.55;1761771;81;20433;-72
2021/08/10 10:51:12;;;;;;;;;;;;;;;29.44;50.46;100118.13;1762092;81;20092;-73
2021/08/10 10:53:35;;;;;;;;;;;;;;;29.54;49.83;100111.02;1760809;81;20149;-74
2021/08/10 10:56:03;;;;;;;;;;;;;;;29.61;50.07;100107.78;1742798;81;20503;-72
2021/08/10 10:58:33;;;;;;;;;;;;;;;29.69;49.68;100110.26;1758236;81;21098;-73
2021/08/10 11:01:21;;;;;;;;;;;;;;;29.77;49.50;100106.53;1751753;81;20143;-71
2021/08/10 11:04:08;;;;;;;;;;;;;;;29.81;49.33;100103.23;1758867;81;20108;-73
2021/08/10 11:06:47;;;;;;;;;;;;;;;29.87;48.87;100105.59;1760210;81;20099;-72
2021/08/10 11:09:33;;;;;;;;;;;;;;;29.94;49.06;100094.33;1761992;81;20095;-71
2021/08/10 11:12:05;;;;;;;;;;;;;;;29.95;48.46;100098.66;1732243;81;22001;-71
2021/08/10 11:14:39;;;;;;;;;;;;;;;29.85;48.68;100092.38;1725139;81;20099;-72
2021/08/10 11:17:11;;;;;;;;;;;;;;;29.76;48.27;100096.31;1756310;81;20118;-72
2021/08/10 11:19:40;;;;;;;;;;;;;;;29.65;48.65;100096.12;1752821;81;20127;-72
2021/08/10 11:22:19;;;;;;;;;;;;;;;29.57;49.28;100081.09;1748266;81;20122;-72
2021/08/10 11:24:50;;;;;;;;;;;;;;;29.53;49.26;100086.55;1754888;81;21090;-73
2021/08/10 11:27:34;;;;;;;;;;;;;;;29.43;49.30;100083.46;1752937;81;20123;-73
2021/08/10 11:30:04;;;;;;;;;;;;;;;29.33;49.52;100078.98;1743833;81;20072;-72
2021/08/10 11:32:45;;;;;;;;;;;;;;;29.23;49.67;100087.95;1747777;81;20079;-72
2021/08/10 11:35:23;;;;;;;;;;;;;;;29.13;50.05;100082.51;1746200;82;20119;-73
2021/08/10 11:38:16;;;;;;;;;;;;;;;29.14;50.72;100077.97;1754817;81;21203;-70
2021/08/10 11:41:04;;;;;;;;;;;;;;;29.12;50.59;100084.05;1753018;81;20083;-68
2021/08/10 11:43:42;;;;;;;;;;;;;;;29.04;50.51;100088.27;1743220;81;20111;-68
2021/08/10 11:46:23;;;;;;;;;;;;;;;28.96;50.80;100076.39;1748703;81;20116;-72
2021/08/10 11:49:01;;;;;;;;;;;;;;;28.98;50.84;100073.82;1758607;81;20119;-69
2021/08/10 11:51:37;;;;;;;;;;;;;;;29.06;50.70;100070.13;1753641;81;21168;-72
2021/08/10 11:54:23;;;;;;;;;;;;;;;29.08;50.57;100073.42;1755873;81;20669;-74
2021/08/10 11:56:55;;;;;;;;;;;;;;;29.08;50.68;100068.89;1758264;81;20112;-70
2021/08/10 11:59:27;;;;;;;;;;;;;;;29.08;50.31;100068.06;1761305;81;20151;-73
2021/08/10 12:02:00;;;;;;;;;;;;;;;29.05;50.51;100064.45;1758258;81;20098;-71
2021/08/10 12:04:30;;;;;;;;;;;;;;;28.97;50.94;100066.81;1753006;81;21135;-72
2021/08/10 12:06:58;;;;;;;;;;;;;;;28.91;51.27;100074.33;1757093;81;20240;-73
2021/08/10 12:09:28;;;;;;;;;;;;;;;28.84;50.87;100064.92;1741848;81;20156;-71
2021/08/10 12:11:57;;;;;;;;;;;;;;;28.79;51.21;100057.98;1758634;81;20091;-73
2021/08/10 12:14:26;;;;;;;;;;;;;;;28.75;50.88;100070.67;1763017;81;20182;-71
2021/08/10 12:17:04;;;;;;;;;;;;;;;28.69;51.16;100068.80;1761987;81;20533;-66
2021/08/10 12:19:40;;;;;;;;;;;;;;;28.64;51.08;100071.27;1762203;81;20090;-70
2021/08/10 12:22:11;;;;;;;;;;;;;;;28.60;51.06;100064.14;1762012;81;20174;-72
2021/08/10 12:24:39;;;;;;;;;;;;;;;28.61;51.73;100063.11;1731619;81;20478;-69
2021/08/10 12:27:07;;;;;;;;;;;;;;;28.68;51.47;100064.47;1754126;81;20094;-72
2021/08/10 12:29:42;;;;;;;;;;;;;;;28.71;50.35;100055.52;1761294;81;21099;-68
2021/08/10 12:32:13;;;;;;;;;;;;;;;28.73;50.68;100050.78;1749338;81;20411;-70
2021/08/10 12:34:40;;;;;;;;;;;;;;;28.76;50.54;100050.37;1761510;81;20147;-72
2021/08/10 12:37:07;;;;;;;;;;;;;;;28.81;50.61;100062.66;1746223;81;20461;-72
2021/08/10 12:39:57;;;;;;;;;;;;;;;28.82;50.73;100044.20;1749546;81;20096;-76
2021/08/10 12:42:28;;;;;;;;;;;;;;;28.82;50.69;100044.72;1742253;81;21188;-70
2021/08/10 12:44:57;;;;;;;;;;;;;;;28.83;50.65;100043.17;1748791;81;20176;-71
2021/08/10 12:47:37;;;;;;;;;;;;;;;28.86;50.65;100041.94;1735227;81;20121;-75
2021/08/10 12:50:28;;;;;;;;;;;;;;;28.88;50.83;100043.39;1749292;81;20094;-75
2021/08/10 12:52:55;;;;;;;;;;;;;;;28.92;50.82;100040.30;1760288;81;20086;-71
2021/08/10 12:55:22;;;;;;;;;;;;;;;28.96;50.57;100042.88;1764015;81;21114;-73
2021/08/10 12:57:59;;;;;;;;;;;;;;;28.98;50.34;100033.61;1763352;81;20155;-70
2021/08/10 13:00:35;;;;;;;;;;;;;;;29.03;50.59;100035.67;1748105;81;20098;-74
2021/08/10 13:03:10;;;;;;;;;;;;;;;29.07;50.75;100035.06;1762195;81;20365;-73
2021/08/10 13:05:38;;;;;;;;;;;;;;;29.12;50.19;100031.77;1740146;81;20110;-69
2021/08/10 13:08:14;;;;;;;;;;;;;;;29.17;50.29;100024.75;1735666;81;21933;-68
2021/08/10 13:10:42;;;;;;;;;;;;;;;29.27;49.51;100028.33;1762674;81;20439;-70
2021/08/10 13:13:13;;;;;;;;;;;;;;;29.35;49.32;100028.64;1762840;81;20144;-69
2021/08/10 13:15:48;;;;;;;;;;;;;;;29.38;49.42;100029.57;1766639;81;20214;-70
2021/08/10 13:18:27;;;;;;;;;;;;;;;29.40;49.34;100031.02;1750218;81;20093;-73
2021/08/10 13:21:00;;;;;;;;;;;;;;;29.36;49.01;100024.41;1753042;81;21117;-70
2021/08/10 13:23:31;;;;;;;;;;;;;;;29.31;48.78;100027.41;1738819;81;20213;-73
2021/08/10 13:26:00;;;;;;;;;;;;;;;29.31;48.55;100026.89;1753251;81;20766;-71
2021/08/10 13:28:34;;;;;;;;;;;;;;;29.38;48.67;100022.34;1755711;81;20118;-73
2021/08/10 13:31:20;;;;;;;;;;;;;;;29.48;48.65;100021.95;1757939;81;20098;-72
2021/08/10 13:34:02;;;;;;;;;;;;;;;29.56;48.95;100015.55;1746651;81;21043;-72
2021/08/10 13:36:30;;;;;;;;;;;;;;;29.61;48.85;100021.91;1760635;81;20131;-72
2021/08/10 13:38:58;;;;;;;;;;;;;;;29.61;47.89;100026.45;1760461;81;20096;-73
2021/08/10 13:41:30;;;;;;;;;;;;;;;29.56;47.86;100026.28;1745293;81;20118;-74
2021/08/10 13:43:57;;;;;;;;;;;;;;;29.48;48.02;100030.01;1760850;81;20086;-74
2021/08/10 13:46:30;;;;;;;;;;;;;;;29.39;48.07;100029.36;1757189;81;21140;-74
2021/08/10 13:49:01;;;;;;;;;;;;;;;29.34;48.37;100026.99;1751023;81;20107;-71
2021/08/10 13:51:29;;;;;;;;;;;;;;;29.28;48.19;100020.59;1758513;81;20099;-74
2021/08/10 13:53:56;;;;;;;;;;;;;;;29.20;48.15;100028.33;1760907;81;20388;-72
2021/08/10 13:56:28;;;;;;;;;;;;;;;29.09;48.54;100017.42;1759652;81;20474;-72
2021/08/10 13:59:00;;;;;;;;;;;;;;;29.05;48.50;100018.36;1742243;81;21820;-72
2021/08/10 14:04:01;;;;;;;;;;;;;;;29.04;48.75;100019.38;1730841;81;20110;-67
